Nearby METAR Reports

 

KRDU - Raleigh-Durham, NC, USA
Distance from station: NE 9mi, 14km
Updated: Fri, 01-Jul-2022 6:51pm EDT
Mostly cloudy
Mostly cloudy
 Wind from SW
Wind: SW 15 mph , 24 km/h
Temperature: 81°F , 27°C
Heat Index: 85°F , 29°C
Dew Point: 70°F , 21°C
Humidity: 70%
Barometer: 1019.3 hPa
Clouds: Mostly cloudy
Visibility: 10 miles , 16 km
Cloud details: Few Clouds 4200 ft
Partly cloudy 12000 ft
Mostly cloudy 25000 ft
2022/07/01 22:51 KRDU 012251Z 22013KT 10SM FEW042 SCT120 BKN250 27/21 A3010 RMK AO2 SLP187 T02720206
KLHZ - Louisburg, NC, USA
Distance from station: N 9mi, 14km
Updated: Fri, 01-Jul-2022 6:35pm EDT
Mostly cloudy
Mostly cloudy
 Wind from SSW
Wind: SSW 10 mph , 17 km/h, Gust: 16 mph , 26 km/h
Temperature: 81°F , 27°C
Heat Index: 85°F , 29°C
Dew Point: 72°F , 22°C
Humidity: 74%
Barometer: 1019.6 hPa
Clouds: Mostly cloudy
Visibility: 10 miles , 16 km
Cloud details: Mostly cloudy 2900 ft
Mostly cloudy 3900 ft
2022/07/01 22:35 KLHZ 012235Z AUTO 20009G14KT 10SM BKN029 BKN039 27/22 A3011 RMK AO2
 
KJNX - Smithfield, NC, USA
Distance from station: NNW 14mi, 23km
Updated: Fri, 01-Jul-2022 6:35pm EDT
Partly cloudy
Partly cloudy
 Wind from SW
Wind: SW 7 mph , 11 km/h
Temperature: 79°F , 26°C
Dew Point: 73°F , 23°C
Humidity: 84%
Barometer: 1019.3 hPa
Clouds: Partly cloudy
Visibility: 10 miles , 16 km
Cloud details: Partly cloudy 1600 ft
2022/07/01 22:35 KJNX 012235Z AUTO 22006KT 10SM SCT016 26/23 A3010 RMK AO2
KHRJ - Erwin, NC, USA
Distance from station: ENE 12mi, 19km
Updated: Fri, 01-Jul-2022 6:35pm EDT
Partly cloudy
Partly cloudy
 Wind from S
Wind: S 3 mph , 6 km/h
Temperature: 77°F , 25°C
Dew Point: 73°F , 23°C
Humidity: 89%
Barometer: 1020 hPa
Clouds: Partly cloudy
Visibility: 10 miles , 16 km
Cloud details: Partly cloudy 1500 ft
2022/07/01 22:35 KHRJ 012235Z AUTO 17003KT 10SM SCT015 25/23 A3012 RMK AO2 T02470228
 
KTTA - Sanford, NC, USA
Distance from station: NNW 31mi, 50km
Updated: Fri, 01-Jul-2022 6:35pm EDT
Partly cloudy
Partly cloudy
 Wind from S
Wind: S 7 mph , 11 km/h, Gust: 16 mph , 26 km/h
Temperature: 77°F , 25°C
Dew Point: 72°F , 22°C
Humidity: 83%
Barometer: 1019 hPa
Clouds: Partly cloudy
Visibility: 10 miles , 16 km
Cloud details: Partly cloudy 1500 ft
2022/07/01 22:35 KTTA 012235Z AUTO 18006G14KT 10SM SCT015 25/22 A3009 RMK AO2 T02480216
KSCR - Siler City, NC, USA
Distance from station: NW 21mi, 34km
Updated: Fri, 01-Jul-2022 6:35pm EDT
Partly cloudy
Partly cloudy
 Wind from S
Wind: S 6 mph , 9 km/h
Temperature: 75°F , 24°C
Dew Point: 72°F , 22°C
Humidity: 89%
Barometer: 1019.6 hPa
Clouds: Partly cloudy
Visibility: 10 miles , 16 km
Cloud details: Partly cloudy 1300 ft
2022/07/01 22:35 KSCR 012235Z AUTO 17005KT 10SM SCT013 24/22 A3011 RMK AO2 T02430215